Time;durP1;ratioP1;P1;durP2;ratioP2;P2;SDS_P1;SDS_P2;PMS_P1;PMS_P2;Temp;Humidity;BMP_temperature;BMP_pressure;BME280_temperature;BME280_humidity;BME280_pressure;Samples;Min_cycle;Max_cycle;Signal;HPM_P1;HPM_P2
2021/08/15 00:01:14;;;;;;;17.33;12.00;;;21.80;99.90;;;;;;4971963;28;20555;-64
2021/08/15 00:03:39;;;;;;;17.70;12.70;;;21.80;99.90;;;;;;4971205;28;20464;-63
2021/08/15 00:06:06;;;;;;;17.73;12.85;;;21.80;99.90;;;;;;4971620;28;20401;-63
2021/08/15 00:08:32;;;;;;;18.58;13.27;;;21.70;99.90;;;;;;4970920;28;20401;-63
2021/08/15 00:10:58;;;;;;;19.08;12.77;;;21.80;99.90;;;;;;4971616;28;20384;-66
2021/08/15 00:13:24;;;;;;;17.17;12.82;;;21.70;99.90;;;;;;4970810;28;20398;-65
2021/08/15 00:15:50;;;;;;;18.92;13.57;;;21.70;99.90;;;;;;4971725;28;20837;-66
2021/08/15 00:18:15;;;;;;;16.88;12.68;;;21.70;99.90;;;;;;4972316;28;20390;-66
2021/08/15 00:20:41;;;;;;;20.40;13.10;;;21.60;99.90;;;;;;4970848;28;20427;-65
2021/08/15 00:23:06;;;;;;;22.03;14.73;;;21.50;99.90;;;;;;4971556;28;20479;-65
2021/08/15 00:25:32;;;;;;;22.07;14.53;;;21.40;99.90;;;;;;4971117;28;20920;-65
2021/08/15 00:27:58;;;;;;;19.00;13.83;;;21.40;99.90;;;;;;4971765;28;20962;-66
2021/08/15 00:30:23;;;;;;;20.73;14.23;;;21.30;99.90;;;;;;4970735;28;20467;-58
2021/08/15 00:32:49;;;;;;;21.75;14.60;;;21.20;99.90;;;;;;4971455;28;20399;-66
2021/08/15 00:35:15;;;;;;;20.92;13.93;;;21.30;99.90;;;;;;4972069;28;20825;-64
2021/08/15 00:37:41;;;;;;;21.83;14.33;;;21.20;99.90;;;;;;4970727;28;20388;-65
2021/08/15 00:40:07;;;;;;;22.17;14.77;;;21.10;99.90;;;;;;4971233;28;20415;-65
2021/08/15 00:42:33;;;;;;;22.30;13.77;;;21.10;99.90;;;;;;4970835;28;20396;-65
2021/08/15 00:44:59;;;;;;;20.85;15.30;;;21.10;99.90;;;;;;4971194;28;20891;-63
2021/08/15 00:47:25;;;;;;;21.63;15.23;;;21.10;99.90;;;;;;4969947;28;20430;-62
2021/08/15 00:49:51;;;;;;;20.35;15.05;;;21.20;99.90;;;;;;4953860;28;20423;-63
2021/08/15 00:52:18;;;;;;;21.20;15.70;;;21.20;99.90;;;;;;4971497;28;20498;-63
2021/08/15 00:54:45;;;;;;;19.10;14.57;;;21.00;99.90;;;;;;4970297;28;20462;-64
2021/08/15 00:57:11;;;;;;;22.67;14.60;;;20.90;99.90;;;;;;4968721;28;20458;-64
2021/08/15 00:59:38;;;;;;;20.77;14.32;;;20.90;99.90;;;;;;4970615;28;20965;-63
2021/08/15 01:02:04;;;;;;;20.65;14.95;;;21.00;99.90;;;;;;4971603;28;20491;-67
2021/08/15 01:04:30;;;;;;;18.50;14.32;;;21.00;99.90;;;;;;4970578;28;20470;-67
2021/08/15 01:06:55;;;;;;;20.47;14.37;;;20.90;99.90;;;;;;4971152;28;20471;-66
2021/08/15 01:09:22;;;;;;;20.80;13.98;;;20.90;99.90;;;;;;4971144;28;20980;-55
2021/08/15 01:11:48;;;;;;;20.48;14.25;;;21.00;99.90;;;;;;4971063;28;20384;-64
2021/08/15 01:14:14;;;;;;;20.70;15.13;;;20.90;99.90;;;;;;4971080;28;20384;-64
2021/08/15 01:16:42;;;;;;;21.00;14.68;;;20.90;99.90;;;;;;4970598;28;20855;-62
2021/08/15 01:19:09;;;;;;;22.65;14.60;;;20.90;99.90;;;;;;4971329;28;20380;-62
2021/08/15 01:21:35;;;;;;;22.23;15.50;;;20.90;99.90;;;;;;4970597;28;20408;-63
2021/08/15 01:24:00;;;;;;;20.25;14.52;;;20.80;99.90;;;;;;4971103;28;20495;-62
2021/08/15 01:26:27;;;;;;;21.80;14.37;;;20.80;99.90;;;;;;4970730;28;20447;-61
2021/08/15 01:28:53;;;;;;;21.42;14.30;;;20.90;99.90;;;;;;4971048;28;20384;-62
2021/08/15 01:31:22;;;;;;;20.43;14.50;;;20.80;99.90;;;;;;4971176;28;20400;-63
2021/08/15 01:33:48;;;;;;;23.45;15.43;;;20.80;99.90;;;;;;4970839;28;20380;-65
2021/08/15 01:36:16;;;;;;;20.50;15.27;;;20.70;99.90;;;;;;4971101;28;20473;-65
2021/08/15 01:38:43;;;;;;;19.52;15.13;;;20.60;99.90;;;;;;4970715;28;20384;-66
2021/08/15 01:41:09;;;;;;;20.85;14.55;;;20.60;99.90;;;;;;4971105;28;20411;-66
2021/08/15 01:43:55;;;;;;;20.08;14.90;;;20.60;99.90;;;;;;4970085;28;20911;-65
2021/08/15 01:46:23;;;;;;;21.75;15.15;;;20.60;99.90;;;;;;4970682;28;20420;-63
2021/08/15 01:48:49;;;;;;;21.67;14.68;;;20.50;99.90;;;;;;4969860;28;20464;-66
2021/08/15 01:51:16;;;;;;;21.90;15.18;;;20.50;99.90;;;;;;4970841;28;20753;-65
2021/08/15 01:53:42;;;;;;;20.55;15.77;;;20.40;99.90;;;;;;4969888;28;20388;-65
2021/08/15 01:56:08;;;;;;;20.88;14.55;;;20.40;99.90;;;;;;4970761;28;20415;-66
2021/08/15 01:58:33;;;;;;;20.95;15.40;;;20.50;99.90;;;;;;4969756;28;20872;-64
2021/08/15 02:01:00;;;;;;;20.98;14.80;;;20.50;99.90;;;;;;4969561;28;20505;-66
2021/08/15 02:03:25;;;;;;;20.83;14.30;;;20.40;99.90;;;;;;4970027;28;20431;-58
2021/08/15 02:05:51;;;;;;;19.42;14.85;;;21.60;99.90;;;;;;4970224;28;20381;-65
2021/08/15 02:08:17;;;;;;;20.27;15.00;;;20.40;99.90;;;;;;4970609;28;20387;-64
2021/08/15 02:10:43;;;;;;;21.07;16.17;;;20.40;99.90;;;;;;4972277;28;20793;-65
2021/08/15 02:13:08;;;;;;;19.38;15.07;;;20.30;99.90;;;;;;4974024;28;20393;-65
2021/08/15 02:15:35;;;;;;;20.30;14.40;;;20.30;99.90;;;;;;4973220;28;20388;-66
2021/08/15 02:18:01;;;;;;;21.65;15.05;;;20.20;99.90;;;;;;4974057;28;20400;-65
2021/08/15 02:20:32;;;;;;;24.60;15.80;;;20.20;99.90;;;;;;4973539;28;20432;-59
2021/08/15 02:23:00;;;;;;;22.58;15.65;;;20.20;99.90;;;;;;4973964;28;20392;-67
2021/08/15 02:25:26;;;;;;;21.33;15.00;;;20.20;99.90;;;;;;4973912;28;20403;-60
2021/08/15 02:27:52;;;;;;;23.73;16.67;;;20.10;99.90;;;;;;4973634;28;20452;-63
2021/08/15 02:30:20;;;;;;;21.33;14.83;;;20.10;99.90;;;;;;4973852;28;20407;-64
2021/08/15 02:32:46;;;;;;;19.70;14.33;;;20.00;99.90;;;;;;4972921;28;20392;-63
2021/08/15 02:35:13;;;;;;;20.98;14.15;;;20.00;99.90;;;;;;4973372;28;20395;-66
2021/08/15 02:37:41;;;;;;;18.33;14.98;;;19.90;99.90;;;;;;4972639;28;20384;-67
2021/08/15 02:40:08;;;;;;;20.10;15.70;;;19.90;99.90;;;;;;4973319;28;20463;-63
2021/08/15 02:42:37;;;;;;;23.92;17.58;;;19.90;99.90;;;;;;4972727;28;20507;-64
2021/08/15 02:45:04;;;;;;;25.20;17.60;;;19.90;99.90;;;;;;4973450;28;20483;-66
2021/08/15 02:47:29;;;;;;;27.13;19.30;;;19.80;99.90;;;;;;4973147;28;20436;-58
2021/08/15 02:49:55;;;;;;;25.08;18.38;;;19.70;99.90;;;;;;4973201;28;20962;-66
2021/08/15 02:52:20;;;;;;;22.17;15.90;;;19.70;99.90;;;;;;4973330;28;20411;-67
2021/08/15 02:54:46;;;;;;;22.57;15.63;;;19.70;99.90;;;;;;4972363;28;20420;-67
2021/08/15 02:57:12;;;;;;;26.38;16.63;;;19.70;99.90;;;;;;4973304;28;20468;-67
2021/08/15 02:59:40;;;;;;;25.40;16.42;;;19.60;99.90;;;;;;4972303;28;20512;-65
2021/08/15 03:02:17;;;;;;;26.38;19.48;;;19.60;99.90;;;;;;4973102;28;20418;-65
2021/08/15 03:04:45;;;;;;;31.45;20.60;;;19.50;99.90;;;;;;4954993;28;20563;-65
2021/08/15 03:07:11;;;;;;;24.20;19.25;;;19.50;99.90;;;;;;4972918;28;20383;-64
2021/08/15 03:09:37;;;;;;;28.98;19.27;;;19.50;99.90;;;;;;4972250;28;20400;-66
2021/08/15 03:12:03;;;;;;;27.70;19.10;;;19.50;99.90;;;;;;4973091;28;20399;-66
2021/08/15 03:14:29;;;;;;;27.52;19.00;;;19.60;99.90;;;;;;4972729;28;20389;-59
2021/08/15 03:16:55;;;;;;;24.60;17.40;;;21.10;99.90;;;;;;4972255;28;20407;-65
2021/08/15 03:19:20;;;;;;;24.20;17.13;;;19.60;99.90;;;;;;4972690;28;20399;-66
2021/08/15 03:21:46;;;;;;;23.75;17.60;;;19.50;99.90;;;;;;4970626;28;20466;-63
2021/08/15 03:24:12;;;;;;;24.30;17.67;;;19.60;99.90;;;;;;4972697;28;20385;-66
2021/08/15 03:26:41;;;;;;;23.45;16.70;;;19.60;99.90;;;;;;4971726;28;20414;-68
2021/08/15 03:29:07;;;;;;;24.60;18.08;;;19.60;99.90;;;;;;4972790;28;20903;-63
2021/08/15 03:31:32;;;;;;;24.43;17.40;;;19.60;99.90;;;;;;4972110;28;20384;-58
2021/08/15 03:33:58;;;;;;;23.38;16.25;;;19.60;99.90;;;;;;4972082;28;20380;-65
2021/08/15 03:36:24;;;;;;;25.60;15.40;;;19.60;99.90;;;;;;4972643;28;20744;-66
2021/08/15 03:38:49;;;;;;;24.30;15.93;;;19.60;99.90;;;;;;4971485;28;21200;-65
2021/08/15 03:41:15;;;;;;;24.08;15.80;;;19.60;99.90;;;;;;4972159;28;20420;-65
2021/08/15 03:43:41;;;;;;;19.50;14.80;;;19.50;99.90;;;;;;4971712;28;20478;-65
2021/08/15 03:46:06;;;;;;;22.50;16.77;;;19.60;99.90;;;;;;4972524;28;20855;-63
2021/08/15 03:48:32;;;;;;;19.83;15.00;;;19.60;99.90;;;;;;4971627;28;20411;-59
2021/08/15 03:50:57;;;;;;;21.03;15.10;;;19.50;99.90;;;;;;4971417;28;20422;-62
2021/08/15 03:53:23;;;;;;;22.58;16.75;;;19.40;99.90;;;;;;4972439;28;20475;-68
2021/08/15 03:55:49;;;;;;;23.17;16.50;;;19.30;99.90;;;;;;4971376;28;20388;-63
2021/08/15 03:58:14;;;;;;;22.33;16.33;;;19.10;99.90;;;;;;4972135;28;20448;-68
2021/08/15 04:00:40;;;;;;;25.20;17.37;;;19.20;99.90;;;;;;4971594;28;20452;-65
2021/08/15 04:03:13;;;;;;;23.88;17.50;;;19.20;99.90;;;;;;4971549;28;20451;-65
2021/08/15 04:05:40;;;;;;;24.20;16.27;;;19.20;99.90;;;;;;4971173;28;20435;-63
2021/08/15 04:08:06;;;;;;;24.95;17.13;;;19.20;99.90;;;;;;4971996;28;20464;-63
2021/08/15 04:10:32;;;;;;;23.17;17.10;;;19.30;99.90;;;;;;4971789;28;20399;-61
2021/08/15 04:12:58;;;;;;;23.38;16.60;;;19.40;99.90;;;;;;4971616;28;20376;-63
2021/08/15 04:15:24;;;;;;;23.90;16.17;;;19.50;99.90;;;;;;4971412;28;20387;-63
2021/08/15 04:17:50;;;;;;;24.08;16.05;;;19.40;99.90;;;;;;4977322;28;20427;-63
2021/08/15 04:20:16;;;;;;;23.13;16.27;;;19.40;99.90;;;;;;4980111;28;20428;-63
2021/08/15 04:22:42;;;;;;;22.42;15.73;;;19.40;99.90;;;;;;4970973;28;20384;-62
2021/08/15 04:25:08;;;;;;;23.67;17.10;;;19.40;99.90;;;;;;4971405;28;20396;-65
2021/08/15 04:27:33;;;;;;;21.80;15.85;;;19.20;99.90;;;;;;4971666;28;20384;-61
2021/08/15 04:29:59;;;;;;;23.42;16.10;;;19.20;99.90;;;;;;4970916;28;20479;-63
2021/08/15 04:32:25;;;;;;;25.58;17.00;;;19.20;99.90;;;;;;4971207;28;20773;-63
2021/08/15 04:34:50;;;;;;;24.73;15.40;;;19.30;99.90;;;;;;4970576;28;20801;-63
2021/08/15 04:37:18;;;;;;;23.37;16.40;;;19.30;99.90;;;;;;4971695;28;20475;-63
2021/08/15 04:39:44;;;;;;;24.25;16.10;;;19.40;99.90;;;;;;4970618;28;20477;-63
2021/08/15 04:42:10;;;;;;;24.08;16.88;;;19.40;99.90;;;;;;4971203;28;20975;-62
2021/08/15 04:44:36;;;;;;;24.90;16.10;;;19.30;99.90;;;;;;4971154;28;20482;-59
2021/08/15 04:47:02;;;;;;;23.95;16.23;;;19.30;99.90;;;;;;4970754;28;20487;-63
2021/08/15 04:49:27;;;;;;;23.97;17.33;;;19.30;99.90;;;;;;4971292;28;20539;-63
2021/08/15 04:51:54;;;;;;;23.10;16.30;;;19.30;99.90;;;;;;4970308;28;20904;-63
2021/08/15 04:54:23;;;;;;;21.75;16.63;;;19.50;99.90;;;;;;4971154;28;20911;-64
2021/08/15 04:56:49;;;;;;;22.70;15.90;;;19.60;99.90;;;;;;4970367;28;20392;-62
2021/08/15 04:59:15;;;;;;;22.17;15.68;;;19.80;99.90;;;;;;4971538;28;20424;-62
2021/08/15 05:01:40;;;;;;;21.67;15.47;;;20.10;99.90;;;;;;4970355;28;20515;-63
2021/08/15 05:04:06;;;;;;;18.75;13.90;;;20.50;99.90;;;;;;4971096;28;20403;-64
2021/08/15 05:06:35;;;;;;;18.80;14.70;;;21.00;99.90;;;;;;4953545;28;20749;-64
2021/08/15 05:09:00;;;;;;;18.77;12.60;;;21.40;99.90;;;;;;4970237;28;20423;-64
2021/08/15 05:11:26;;;;;;;24.20;14.00;;;21.80;99.90;;;;;;4971174;28;20474;-64
2021/08/15 05:13:52;;;;;;;16.70;12.53;;;21.70;99.90;;;;;;4970640;28;20392;-64
2021/08/15 05:16:17;;;;;;;18.10;12.77;;;21.60;99.90;;;;;;4971516;28;20384;-64
2021/08/15 05:18:43;;;;;;;17.40;13.82;;;21.50;99.90;;;;;;4970803;28;20395;-64
2021/08/15 05:21:09;;;;;;;24.63;14.48;;;21.50;99.90;;;;;;4971145;28;20784;-64
2021/08/15 05:23:34;;;;;;;20.50;14.50;;;21.50;99.90;;;;;;4937800;28;20467;-64
2021/08/15 05:26:00;;;;;;;21.03;14.40;;;21.40;99.90;;;;;;4970243;28;20384;-64
2021/08/15 05:28:26;;;;;;;21.10;14.40;;;21.40;99.90;;;;;;4970796;28;20459;-63
2021/08/15 05:30:52;;;;;;;20.40;12.88;;;21.50;99.90;;;;;;4971133;28;20403;-64
2021/08/15 05:33:18;;;;;;;22.20;13.63;;;21.90;99.90;;;;;;4983636;28;20386;-64
2021/08/15 05:35:44;;;;;;;19.48;14.40;;;22.70;99.90;;;;;;4962314;28;20771;-64
2021/08/15 05:38:10;;;;;;;19.65;13.13;;;23.50;99.90;;;;;;4980690;28;20467;-64
2021/08/15 05:40:35;;;;;;;19.45;13.90;;;24.40;99.90;;;;;;4979443;28;20418;-67
2021/08/15 05:43:01;;;;;;;17.70;13.98;;;25.20;99.90;;;;;;4979840;28;20541;-67
2021/08/15 05:45:27;;;;;;;20.98;15.13;;;25.30;99.90;;;;;;4981298;28;20390;-67
2021/08/15 05:47:52;;;;;;;22.67;15.38;;;24.70;99.90;;;;;;4983198;28;20708;-64
2021/08/15 05:50:18;;;;;;;19.30;14.50;;;24.10;99.90;;;;;;4982794;28;20421;-63
2021/08/15 05:52:43;;;;;;;19.33;14.33;;;24.20;99.90;;;;;;4976859;28;20435;-63
2021/08/15 05:55:12;;;;;;;17.23;13.32;;;25.10;99.90;;;;;;4975878;28;20605;-64
2021/08/15 05:57:37;;;;;;;18.23;13.00;;;26.50;99.90;;;;;;4978212;28;20503;-65
2021/08/15 06:00:05;;;;;;;19.70;13.40;;;28.00;99.90;;;;;;4980535;28;20512;-63
2021/08/15 06:02:31;;;;;;;19.20;12.93;;;28.80;99.90;;;;;;4962370;28;20426;-65
2021/08/15 06:04:56;;;;;;;19.90;13.40;;;29.40;99.90;;;;;;4988853;28;20391;-66
2021/08/15 06:07:22;;;;;;;15.57;13.00;;;29.30;99.90;;;;;;4991324;28;20497;-65
2021/08/15 06:09:48;;;;;;;16.60;12.30;;;29.00;99.90;;;;;;4980997;28;20464;-63
2021/08/15 06:12:13;;;;;;;19.93;12.33;;;29.20;99.90;;;;;;4983770;28;20411;-64
2021/08/15 06:14:39;;;;;;;17.10;12.30;;;30.10;99.90;;;;;;4981213;28;20420;-64
2021/08/15 06:17:05;;;;;;;17.63;13.00;;;31.30;99.90;;;;;;4980947;28;20402;-65
2021/08/15 06:19:31;;;;;;;19.10;14.30;;;31.30;99.90;;;;;;4980797;28;20759;-63
2021/08/15 06:21:57;;;;;;;17.88;13.73;;;30.60;99.90;;;;;;4981627;28;20404;-66
2021/08/15 06:24:22;;;;;;;18.63;12.90;;;30.60;99.90;;;;;;4980642;28;20913;-65
2021/08/15 06:26:48;;;;;;;16.40;13.10;;;31.10;99.90;;;;;;4973061;28;20392;-65
2021/08/15 06:29:14;;;;;;;18.10;13.87;;;30.90;99.90;;;;;;4985405;28;20442;-66
2021/08/15 06:31:39;;;;;;;17.40;14.17;;;30.50;99.90;;;;;;4966683;28;20402;-65
2021/08/15 06:34:05;;;;;;;18.47;14.60;;;28.30;99.90;;;;;;4981807;28;20382;-64
2021/08/15 06:36:30;;;;;;;20.67;14.30;;;28.90;99.90;;;;;;4980772;28;20523;-65
2021/08/15 06:38:56;;;;;;;19.25;14.48;;;28.40;99.90;;;;;;4977991;28;20388;-64
2021/08/15 06:41:22;;;;;;;18.30;13.73;;;28.30;99.90;;;;;;4977195;28;20894;-65
2021/08/15 06:43:47;;;;;;;18.08;13.30;;;28.60;99.90;;;;;;4977880;28;20407;-65
2021/08/15 06:46:13;;;;;;;17.70;14.05;;;29.10;99.90;;;;;;4977880;28;20491;-66
2021/08/15 06:48:40;;;;;;;17.25;13.05;;;30.10;99.90;;;;;;4978786;28;20469;-66
2021/08/15 06:51:06;;;;;;;19.70;14.40;;;31.00;99.90;;;;;;4977007;28;20761;-66
2021/08/15 06:53:35;;;;;;;19.05;13.90;;;31.80;99.90;;;;;;4983448;28;20395;-65
2021/08/15 06:56:01;;;;;;;15.75;12.95;;;32.10;99.90;;;;;;4977364;28;20934;-64
2021/08/15 06:58:27;;;;;;;18.35;13.88;;;32.60;99.20;;;;;;4984028;28;20473;-65
2021/08/15 07:00:53;;;;;;;17.77;13.27;;;32.80;97.80;;;;;;4980050;28;20553;-65
2021/08/15 07:03:19;;;;;;;16.63;13.23;;;32.90;96.90;;;;;;4988102;28;20754;-65
2021/08/15 07:05:45;;;;;;;15.95;13.02;;;32.70;97.00;;;;;;4982912;28;20489;-59
2021/08/15 07:08:11;;;;;;;19.20;14.55;;;33.20;96.50;;;;;;4980187;28;20392;-65
2021/08/15 07:10:37;;;;;;;16.67;13.25;;;33.80;95.00;;;;;;4982135;28;20874;-64
2021/08/15 07:13:07;;;;;;;18.70;13.60;;;34.10;93.80;;;;;;4981419;28;20925;-66
2021/08/15 07:15:32;;;;;;;19.98;17.88;;;34.60;91.70;;;;;;4977569;28;20406;-66
2021/08/15 07:17:58;;;;;;;18.17;14.75;;;35.30;89.30;;;;;;4979396;28;20930;-63
2021/08/15 07:20:25;;;;;;;20.25;14.57;;;35.30;88.30;;;;;;4982118;28;20725;-65
2021/08/15 07:22:51;;;;;;;18.55;14.32;;;35.40;88.80;;;;;;4981624;28;20430;-66
2021/08/15 07:25:19;;;;;;;19.05;14.60;;;36.10;84.40;;;;;;4980499;28;20380;-66
2021/08/15 07:27:45;;;;;;;16.80;13.80;;;35.80;82.90;;;;;;4981629;28;20405;-61
2021/08/15 07:30:12;;;;;;;16.20;13.68;;;34.80;84.90;;;;;;4989776;28;20394;-66
2021/08/15 07:32:58;;;;;;;19.10;14.77;;;34.80;86.80;;;;;;4987609;28;20395;-65
2021/08/15 07:35:25;;;;;;;19.10;14.20;;;35.30;84.40;;;;;;4981140;28;20408;-66
2021/08/15 07:37:51;;;;;;;19.23;14.10;;;34.90;86.00;;;;;;4979072;28;20560;-65
2021/08/15 07:40:18;;;;;;;18.67;13.80;;;34.70;86.90;;;;;;4975407;28;20414;-66
2021/08/15 07:42:46;;;;;;;16.85;14.10;;;34.60;87.00;;;;;;4978178;28;20420;-66
2021/08/15 07:45:13;;;;;;;16.52;14.60;;;34.70;87.20;;;;;;4987355;28;20406;-65
2021/08/15 07:47:40;;;;;;;20.00;15.43;;;34.70;87.70;;;;;;4976771;28;20882;-65
2021/08/15 07:50:07;;;;;;;20.52;16.60;;;35.00;86.60;;;;;;4985891;28;20464;-66
2021/08/15 07:52:32;;;;;;;17.97;15.80;;;34.90;86.40;;;;;;4977184;28;20417;-66
2021/08/15 07:54:58;;;;;;;19.00;16.10;;;34.90;86.20;;;;;;4979933;28;20754;-66
2021/08/15 07:57:24;;;;;;;18.15;15.13;;;35.20;86.50;;;;;;4975432;28;20510;-66
2021/08/15 07:59:49;;;;;;;18.83;15.00;;;35.60;84.10;;;;;;4973354;28;20514;-60
2021/08/15 08:02:17;;;;;;;19.90;15.20;;;36.00;81.10;;;;;;4976209;28;20394;-66
2021/08/15 08:04:43;;;;;;;18.55;15.27;;;36.10;80.80;;;;;;4984668;28;20396;-63
2021/08/15 08:07:09;;;;;;;20.70;18.50;;;36.50;78.80;;;;;;4975649;28;21008;-67
2021/08/15 08:09:35;;;;;;;16.73;13.95;;;36.90;77.20;;;;;;4982863;28;20523;-64
2021/08/15 08:12:01;;;;;;;17.50;14.27;;;36.80;76.80;;;;;;4973405;28;20499;-66
2021/08/15 08:14:27;;;;;;;17.90;13.90;;;37.20;75.20;;;;;;4978132;28;20403;-66
2021/08/15 08:16:52;;;;;;;16.80;13.90;;;38.00;72.90;;;;;;4976590;28;20415;-63
2021/08/15 08:19:18;;;;;;;17.10;13.83;;;38.10;72.10;;;;;;4974762;28;20414;-64
2021/08/15 08:21:44;;;;;;;19.00;14.77;;;37.90;71.40;;;;;;4972786;28;20420;-66
2021/08/15 08:24:10;;;;;;;16.98;15.15;;;37.80;71.60;;;;;;4987092;28;20501;-67
2021/08/15 08:26:35;;;;;;;19.20;16.23;;;37.90;71.70;;;;;;4972787;28;20404;-66
2021/08/15 08:29:02;;;;;;;17.73;15.30;;;37.90;70.50;;;;;;4982661;28;20529;-66
2021/08/15 08:31:29;;;;;;;18.58;15.30;;;38.10;70.30;;;;;;4972095;28;20418;-66
2021/08/15 08:33:54;;;;;;;18.60;15.40;;;37.90;71.40;;;;;;4987016;28;20387;-66
2021/08/15 08:36:21;;;;;;;17.58;14.77;;;37.70;71.00;;;;;;4988813;28;20786;-65
2021/08/15 08:38:47;;;;;;;17.63;15.00;;;37.80;70.10;;;;;;4981723;28;20421;-66
2021/08/15 08:41:15;;;;;;;17.97;15.40;;;37.90;69.60;;;;;;4974787;28;20416;-67
2021/08/15 08:43:41;;;;;;;18.60;15.75;;;37.60;70.10;;;;;;4978615;28;20841;-65
2021/08/15 08:46:09;;;;;;;17.77;15.50;;;38.80;66.50;;;;;;4987533;28;20426;-67
2021/08/15 08:48:35;;;;;;;17.65;15.77;;;38.50;67.60;;;;;;4987523;28;20570;-67
2021/08/15 08:51:02;;;;;;;19.67;15.85;;;39.00;65.80;;;;;;4986631;28;20914;-63
2021/08/15 08:53:29;;;;;;;19.63;15.48;;;38.10;67.00;;;;;;4964596;28;20800;-66
2021/08/15 08:55:55;;;;;;;18.67;15.80;;;37.00;70.40;;;;;;4969081;28;20503;-67
2021/08/15 08:58:21;;;;;;;18.67;16.67;;;37.20;70.10;;;;;;4984858;28;20418;-65
2021/08/15 09:00:49;;;;;;;19.48;15.88;;;37.70;68.40;;;;;;4977047;28;20648;-66
2021/08/15 09:03:15;;;;;;;19.67;15.17;;;38.60;66.40;;;;;;4961630;28;20835;-67
2021/08/15 09:05:49;;;;;;;19.30;15.50;;;38.60;66.60;;;;;;4980435;28;20398;-68
2021/08/15 09:08:33;;;;;;;18.30;14.97;;;38.60;66.10;;;;;;4977237;28;20419;-67
2021/08/15 09:11:14;;;;;;;19.77;16.57;;;38.50;65.70;;;;;;4978668;28;20438;-69
2021/08/15 09:13:40;;;;;;;16.00;13.90;;;40.10;61.20;;;;;;4985544;28;20410;-64
2021/08/15 09:16:05;;;;;;;20.17;15.05;;;40.20;61.00;;;;;;4987187;28;20770;-69
2021/08/15 09:18:32;;;;;;;16.90;14.20;;;40.00;61.30;;;;;;4983741;28;20418;-65
2021/08/15 09:20:58;;;;;;;16.97;13.80;;;40.20;61.40;;;;;;4981255;28;20563;-68
2021/08/15 09:23:34;;;;;;;16.67;13.57;;;39.60;63.00;;;;;;4972481;28;20406;-66
2021/08/15 09:26:09;;;;;;;15.70;14.00;;;39.70;61.20;;;;;;4969873;28;20780;-67
2021/08/15 09:28:35;;;;;;;17.00;13.50;;;40.60;59.80;;;;;;4987266;28;20794;-69
2021/08/15 09:31:24;;;;;;;16.95;13.30;;;41.30;57.40;;;;;;4982158;28;20426;-64
2021/08/15 09:33:51;;;;;;;16.67;14.20;;;41.70;57.40;;;;;;4981980;28;20413;-66
2021/08/15 09:36:41;;;;;;;16.60;14.27;;;41.30;57.40;;;;;;4986271;28;20969;-70
2021/08/15 09:39:08;;;;;;;16.33;14.30;;;40.60;58.80;;;;;;4991385;28;20389;-69
2021/08/15 09:41:36;;;;;;;16.70;13.82;;;41.10;58.00;;;;;;4986695;28;20418;-69
2021/08/15 09:44:25;;;;;;;17.85;14.35;;;41.80;56.40;;;;;;4989698;28;20469;-70
2021/08/15 09:47:11;;;;;;;17.67;14.45;;;40.90;57.50;;;;;;4988234;28;20529;-62
2021/08/15 09:49:48;;;;;;;14.85;12.65;;;40.60;57.90;;;;;;4988319;28;20429;-70
2021/08/15 09:52:16;;;;;;;17.88;12.50;;;40.80;55.90;;;;;;4968227;28;21010;-71
2021/08/15 09:54:55;;;;;;;14.98;12.63;;;40.50;55.70;;;;;;4967612;28;20484;-70
2021/08/15 09:57:36;;;;;;;16.38;13.07;;;41.10;54.70;;;;;;4962086;28;20897;-70
2021/08/15 10:00:04;;;;;;;16.42;13.43;;;41.50;53.70;;;;;;4960694;28;20569;-69
2021/08/15 10:02:30;;;;;;;19.27;12.23;;;42.70;51.90;;;;;;4961482;28;20496;-72
2021/08/15 10:04:57;;;;;;;15.90;12.82;;;41.60;53.70;;;;;;4963915;28;20432;-64
2021/08/15 10:07:24;;;;;;;14.50;12.63;;;40.90;54.00;;;;;;4970827;28;20906;-70
2021/08/15 10:09:50;;;;;;;17.10;12.40;;;41.50;53.20;;;;;;4968151;28;20429;-72
2021/08/15 10:12:16;;;;;;;16.13;12.40;;;40.90;54.00;;;;;;4962814;28;20923;-72
2021/08/15 10:14:42;;;;;;;16.13;13.07;;;40.10;55.10;;;;;;4968871;28;20883;-71
2021/08/15 10:17:14;;;;;;;15.88;13.38;;;39.30;56.60;;;;;;4964337;28;20570;-70
2021/08/15 10:19:54;;;;;;;15.85;12.70;;;39.90;56.20;;;;;;4961096;28;20445;-70
2021/08/15 10:22:23;;;;;;;17.13;11.95;;;40.60;55.60;;;;;;4964259;28;20417;-67
2021/08/15 10:24:53;;;;;;;15.33;13.00;;;40.20;54.90;;;;;;4963779;28;20893;-71
2021/08/15 10:27:41;;;;;;;16.98;15.27;;;38.30;57.40;;;;;;4963741;28;20955;-70
2021/08/15 10:30:24;;;;;;;18.00;15.32;;;37.20;60.00;;;;;;4961266;28;20446;-71
2021/08/15 10:32:56;;;;;;;19.73;16.75;;;37.40;59.80;;;;;;4965155;28;20435;-72
2021/08/15 10:35:23;;;;;;;17.13;15.30;;;36.70;61.00;;;;;;4970021;28;20416;-69
2021/08/15 10:37:54;;;;;;;20.27;16.83;;;35.90;63.20;;;;;;4966276;28;20498;-66
2021/08/15 10:40:38;;;;;;;16.70;15.00;;;35.50;64.70;;;;;;4969126;28;20408;-69
2021/08/15 10:43:05;;;;;;;21.10;18.05;;;35.20;66.50;;;;;;4962289;28;20470;-70
2021/08/15 10:45:31;;;;;;;22.40;17.30;;;35.00;67.70;;;;;;4968232;28;20424;-68
2021/08/15 10:48:08;;;;;;;19.33;16.27;;;34.80;68.60;;;;;;4962432;28;20443;-63
2021/08/15 10:50:52;;;;;;;18.50;15.85;;;34.80;69.20;;;;;;4965346;28;20420;-66
2021/08/15 10:53:29;;;;;;;16.85;14.57;;;35.10;68.00;;;;;;4977713;28;20420;-70
2021/08/15 10:56:03;;;;;;;19.63;16.30;;;35.80;66.80;;;;;;4978531;28;20426;-67
2021/08/15 10:58:37;;;;;;;18.73;16.20;;;36.30;66.00;;;;;;4986879;28;20421;-71
2021/08/15 11:01:06;;;;;;;21.40;16.20;;;36.40;65.00;;;;;;4987296;28;20414;-70
2021/08/15 11:03:34;;;;;;;19.60;16.52;;;34.80;66.70;;;;;;4988738;28;20410;-69
2021/08/15 11:06:02;;;;;;;18.88;16.42;;;34.70;68.70;;;;;;4981643;28;20402;-66
2021/08/15 11:08:33;;;;;;;19.65;17.27;;;33.80;71.50;;;;;;4988979;28;20486;-68
2021/08/15 11:11:18;;;;;;;17.70;15.80;;;32.80;74.60;;;;;;4986390;28;20445;-62
2021/08/15 11:13:44;;;;;;;18.35;16.25;;;32.70;75.70;;;;;;4979829;28;20420;-65
2021/08/15 11:16:43;;;;;;;21.02;17.75;;;32.70;76.70;;;;;;4982922;28;20853;-70
2021/08/15 11:19:11;;;;;;;19.85;17.85;;;32.10;79.10;;;;;;4985387;28;20521;-70
2021/08/15 11:22:10;;;;;;;19.50;16.75;;;32.00;81.00;;;;;;4981862;28;20431;-68
2021/08/15 11:24:44;;;;;;;20.13;16.50;;;32.00;84.80;;;;;;4980467;28;20423;-69
2021/08/15 11:27:40;;;;;;;18.63;16.02;;;31.90;86.20;;;;;;4979666;28;20419;-72
2021/08/15 11:30:18;;;;;;;17.07;15.27;;;32.00;87.30;;;;;;4983330;28;20441;-71
2021/08/15 11:32:52;;;;;;;20.45;15.75;;;31.60;90.00;;;;;;4984579;28;20865;-70
2021/08/15 11:35:18;;;;;;;23.80;16.55;;;31.40;92.80;;;;;;4977791;28;20480;-66
2021/08/15 11:37:53;;;;;;;19.02;15.60;;;31.60;94.00;;;;;;4984818;28;20801;-71
2021/08/15 11:40:24;;;;;;;18.20;15.25;;;31.90;92.70;;;;;;4989604;28;20714;-69
2021/08/15 11:43:08;;;;;;;17.95;15.00;;;32.20;91.90;;;;;;4982931;28;20435;-69
2021/08/15 11:45:38;;;;;;;18.02;15.43;;;32.50;89.80;;;;;;4984651;28;20418;-71
2021/08/15 11:48:14;;;;;;;23.33;16.20;;;32.50;90.40;;;;;;4984830;28;20851;-72
2021/08/15 11:50:43;;;;;;;18.88;15.70;;;32.60;89.30;;;;;;4983666;28;20411;-71
2021/08/15 11:53:32;;;;;;;18.60;15.00;;;32.60;88.90;;;;;;4981840;28;20404;-69
2021/08/15 11:56:12;;;;;;;18.20;15.90;;;32.50;88.90;;;;;;4983380;28;20438;-71
2021/08/15 11:58:53;;;;;;;17.88;15.02;;;32.50;89.90;;;;;;4981248;28;20497;-72
2021/08/15 12:01:24;;;;;;;17.20;14.82;;;33.10;88.00;;;;;;4979373;28;20509;-67
2021/08/15 12:04:03;;;;;;;17.87;15.00;;;33.10;88.20;;;;;;4981233;28;20789;-72
2021/08/15 12:06:31;;;;;;;20.50;15.48;;;33.00;89.60;;;;;;4979967;28;20421;-70
2021/08/15 12:08:56;;;;;;;17.65;14.95;;;33.10;87.40;;;;;;4982055;28;20402;-70
2021/08/15 12:11:28;;;;;;;18.40;14.95;;;33.50;85.80;;;;;;4985512;28;20401;-68
2021/08/15 12:14:12;;;;;;;17.17;15.38;;;33.40;86.20;;;;;;4987177;28;20961;-70
2021/08/15 12:16:39;;;;;;;17.90;14.40;;;33.40;86.70;;;;;;4985626;28;20429;-67
2021/08/15 12:19:06;;;;;;;23.13;15.82;;;33.80;85.70;;;;;;4975476;28;20408;-68
2021/08/15 12:21:31;;;;;;;17.67;14.70;;;34.10;83.20;;;;;;4981974;28;20416;-70
2021/08/15 12:24:00;;;;;;;18.63;16.73;;;34.30;81.90;;;;;;4984991;28;20931;-67
2021/08/15 12:26:28;;;;;;;16.85;15.07;;;34.00;82.80;;;;;;4982681;28;20413;-69
2021/08/15 12:28:59;;;;;;;22.30;14.70;;;33.60;83.30;;;;;;4980975;28;20426;-70
2021/08/15 12:31:27;;;;;;;16.50;14.27;;;33.30;84.90;;;;;;4982418;28;22067;-69
2021/08/15 12:34:23;;;;;;;17.90;15.02;;;33.60;84.50;;;;;;4978047;28;20936;-67